ADDS METAR Data INFO
IDs: Format: Raw Decoded Include TAF

Data at: 1551 UTC 18 Nov 2017

METAR for:KMNN (Marion Muni, OH, US)
Text:KMNN 181541Z AUTO 19010KT 1 1/2SM VCTS RA BR FEW016 BKN047 OVC060 10/09 A2951 RMK AO2 LTG DSNT SE AND SW RAB12 P0007 T01000089
Temperature: 10.0°C ( 50°F)
Dewpoint: 8.9°C ( 48°F) [RH = 93%]
Pressure (altimeter):29.51 inches Hg ( 999.4 mb)
Winds:from the S (190 degrees) at 12 MPH (10 knots; 5.1 m/s)
Visibility: 1.50 sm ( 2.41 km)
Ceiling:4700 feet AGL
Clouds: few clouds at 1600 feet AGL, broken clouds at 4700 feet AGL, overcast cloud deck at 6000 feet AGL
Weather:VCTS RA BR (thunderstorm in vicinity, moderate rain, mist)
QC Flag:automated observation with no human augmentation